Hovedside
METAR-TAF:

METAR-TAF

Lufthavner :

Budapest Liszt Ferenc internasjonale lufthavn

Budapest, Ungarn

breddegrad: 47-26N, lengdegrad: 019-16E, høyde over havet: 151 m

Gjeldene værobservasjon

Denne rapporten ble laget for 22 minutter siden, klokken 19:30 UTC
Vind 3 kt fra skiftende retning
Temperatur 20°C
Luftfuktighet 83%
Trykk 1016 hPa
Sikt 10 km eller mer
ingen skyer under 1500 m og ingen bygeskyer

METAR: LHBP 161930Z VRB03KT CAVOK 20/17 Q1016 NOSIG

Tid: 21:52 (19:52 UTC)

Varsel

Denne rapporten ble laget for 2 timer og 37 minutter siden, klokken 17:15 UTC
Varsel gyldig fra 16. klokken 18 UTC til 17. klokken 18 UTC
Vind 3 kt fra skiftende retning
Sikt 10 km eller mer
ingen skyer under 1500 m og ingen bygeskyer

TAF: LHBP 161715Z 1618/1718 VRB03KT CAVOK

Værobservasjoner og værvarsel for over 4000 flyplasser (METAR- og TAF-rapporter).

Tilgjengelige stasjoner er representert av de røde og gule prikkene på kartet.

Hold musepekeren over prikken for å se navnet på stasjonen.

Klikk så for å se værobservasjoner og -varsler.

For å forandre kartet kan du klikke på den grønne knappen med svart kryss for å zoome inn, på den grønne knappen med strek for å zoome ut, eller på de grønne pilene for å se tilstøtende kart.


METAR-TAF: